sensor_id;sensor_type;location;lat;lon;timestamp;P1;durP1;ratioP1;P2;durP2;ratioP2
43114;SDS011;28727;50.068;14.452;2023-08-12T00:01:30;8.80;;;5.28;;
43114;SDS011;28727;50.068;14.452;2023-08-12T00:04:03;7.53;;;5.43;;
43114;SDS011;28727;50.068;14.452;2023-08-12T00:06:36;7.82;;;5.20;;
43114;SDS011;28727;50.068;14.452;2023-08-12T00:09:08;9.45;;;5.28;;
43114;SDS011;28727;50.068;14.452;2023-08-12T00:11:43;7.65;;;5.53;;
43114;SDS011;28727;50.068;14.452;2023-08-12T00:14:15;8.13;;;5.40;;
43114;SDS011;28727;50.068;14.452;2023-08-12T00:16:47;8.60;;;4.95;;
43114;SDS011;28727;50.068;14.452;2023-08-12T00:19:19;9.35;;;5.45;;
43114;SDS011;28727;50.068;14.452;2023-08-12T00:21:51;7.63;;;5.18;;
43114;SDS011;28727;50.068;14.452;2023-08-12T00:24:24;7.47;;;5.10;;
43114;SDS011;28727;50.068;14.452;2023-08-12T00:26:56;7.30;;;4.70;;
43114;SDS011;28727;50.068;14.452;2023-08-12T00:29:28;10.40;;;5.68;;
43114;SDS011;28727;50.068;14.452;2023-08-12T00:31:59;10.13;;;5.60;;
43114;SDS011;28727;50.068;14.452;2023-08-12T00:34:32;9.48;;;5.32;;
43114;SDS011;28727;50.068;14.452;2023-08-12T00:37:03;8.38;;;5.13;;
43114;SDS011;28727;50.068;14.452;2023-08-12T00:39:36;9.68;;;5.28;;
43114;SDS011;28727;50.068;14.452;2023-08-12T00:42:08;8.27;;;5.63;;
43114;SDS011;28727;50.068;14.452;2023-08-12T00:44:40;10.00;;;5.57;;
43114;SDS011;28727;50.068;14.452;2023-08-12T00:47:12;8.05;;;5.20;;
43114;SDS011;28727;50.068;14.452;2023-08-12T00:49:44;8.18;;;5.13;;
43114;SDS011;28727;50.068;14.452;2023-08-12T00:52:17;8.68;;;6.05;;
43114;SDS011;28727;50.068;14.452;2023-08-12T00:54:49;6.68;;;5.25;;
43114;SDS011;28727;50.068;14.452;2023-08-12T00:57:22;8.15;;;5.28;;
43114;SDS011;28727;50.068;14.452;2023-08-12T00:59:55;6.65;;;5.18;;
43114;SDS011;28727;50.068;14.452;2023-08-12T01:02:28;8.13;;;5.13;;
43114;SDS011;28727;50.068;14.452;2023-08-12T01:05:00;6.75;;;5.22;;
43114;SDS011;28727;50.068;14.452;2023-08-12T01:07:33;11.30;;;5.45;;
43114;SDS011;28727;50.068;14.452;2023-08-12T01:10:05;9.93;;;5.60;;
43114;SDS011;28727;50.068;14.452;2023-08-12T01:12:41;8.65;;;5.32;;
43114;SDS011;28727;50.068;14.452;2023-08-12T01:15:33;8.05;;;5.28;;
43114;SDS011;28727;50.068;14.452;2023-08-12T01:18:06;8.73;;;5.05;;
43114;SDS011;28727;50.068;14.452;2023-08-12T01:20:42;10.15;;;5.20;;
43114;SDS011;28727;50.068;14.452;2023-08-12T01:23:14;8.82;;;5.13;;
43114;SDS011;28727;50.068;14.452;2023-08-12T01:25:50;7.38;;;5.00;;
43114;SDS011;28727;50.068;14.452;2023-08-12T01:28:29;7.65;;;5.63;;
43114;SDS011;28727;50.068;14.452;2023-08-12T01:31:04;11.35;;;5.50;;
43114;SDS011;28727;50.068;14.452;2023-08-12T01:33:45;6.32;;;5.13;;
43114;SDS011;28727;50.068;14.452;2023-08-12T01:36:23;9.50;;;5.47;;
43114;SDS011;28727;50.068;14.452;2023-08-12T01:38:59;8.60;;;5.28;;
43114;SDS011;28727;50.068;14.452;2023-08-12T01:41:35;7.38;;;5.15;;
43114;SDS011;28727;50.068;14.452;2023-08-12T01:44:08;9.77;;;5.45;;
43114;SDS011;28727;50.068;14.452;2023-08-12T01:46:42;6.78;;;4.97;;
43114;SDS011;28727;50.068;14.452;2023-08-12T01:49:18;8.23;;;5.88;;
43114;SDS011;28727;50.068;14.452;2023-08-12T01:51:53;8.73;;;5.93;;
43114;SDS011;28727;50.068;14.452;2023-08-12T01:54:27;7.93;;;6.20;;
43114;SDS011;28727;50.068;14.452;2023-08-12T01:57:04;8.57;;;5.75;;
43114;SDS011;28727;50.068;14.452;2023-08-12T01:59:38;11.63;;;5.50;;
43114;SDS011;28727;50.068;14.452;2023-08-12T02:02:10;6.88;;;5.80;;
43114;SDS011;28727;50.068;14.452;2023-08-12T02:04:42;7.60;;;5.72;;
43114;SDS011;28727;50.068;14.452;2023-08-12T02:07:18;7.43;;;5.78;;
43114;SDS011;28727;50.068;14.452;2023-08-12T02:09:51;6.93;;;5.90;;
43114;SDS011;28727;50.068;14.452;2023-08-12T02:12:23;7.10;;;5.75;;
43114;SDS011;28727;50.068;14.452;2023-08-12T02:14:55;6.47;;;5.65;;
43114;SDS011;28727;50.068;14.452;2023-08-12T02:17:30;8.73;;;5.43;;
43114;SDS011;28727;50.068;14.452;2023-08-12T02:20:03;9.15;;;5.35;;
43114;SDS011;28727;50.068;14.452;2023-08-12T02:22:38;8.45;;;5.38;;
43114;SDS011;28727;50.068;14.452;2023-08-12T02:25:11;9.85;;;5.45;;
43114;SDS011;28727;50.068;14.452;2023-08-12T02:27:43;8.13;;;5.13;;
43114;SDS011;28727;50.068;14.452;2023-08-12T02:30:15;7.68;;;5.55;;
43114;SDS011;28727;50.068;14.452;2023-08-12T02:32:47;6.72;;;5.30;;
43114;SDS011;28727;50.068;14.452;2023-08-12T02:35:21;7.07;;;5.30;;
43114;SDS011;28727;50.068;14.452;2023-08-12T02:37:52;7.30;;;5.50;;
43114;SDS011;28727;50.068;14.452;2023-08-12T02:40:27;7.88;;;5.22;;
43114;SDS011;28727;50.068;14.452;2023-08-12T02:42:59;6.10;;;5.45;;
43114;SDS011;28727;50.068;14.452;2023-08-12T02:45:31;9.15;;;5.30;;
43114;SDS011;28727;50.068;14.452;2023-08-12T02:48:03;8.38;;;5.60;;
43114;SDS011;28727;50.068;14.452;2023-08-12T02:50:36;14.70;;;5.95;;
43114;SDS011;28727;50.068;14.452;2023-08-12T02:53:10;7.70;;;5.95;;
43114;SDS011;28727;50.068;14.452;2023-08-12T02:55:46;6.25;;;5.20;;
43114;SDS011;28727;50.068;14.452;2023-08-12T02:58:18;9.48;;;5.57;;
43114;SDS011;28727;50.068;14.452;2023-08-12T03:00:50;7.25;;;5.25;;
43114;SDS011;28727;50.068;14.452;2023-08-12T03:03:22;8.43;;;5.63;;
43114;SDS011;28727;50.068;14.452;2023-08-12T03:05:58;6.93;;;5.20;;
43114;SDS011;28727;50.068;14.452;2023-08-12T03:08:31;7.73;;;6.00;;
43114;SDS011;28727;50.068;14.452;2023-08-12T03:11:03;6.38;;;5.07;;
43114;SDS011;28727;50.068;14.452;2023-08-12T03:13:36;8.18;;;5.57;;
43114;SDS011;28727;50.068;14.452;2023-08-12T03:16:12;7.95;;;5.70;;
43114;SDS011;28727;50.068;14.452;2023-08-12T03:18:50;7.80;;;5.85;;
43114;SDS011;28727;50.068;14.452;2023-08-12T03:21:23;9.30;;;5.60;;
43114;SDS011;28727;50.068;14.452;2023-08-12T03:23:56;11.40;;;6.90;;
43114;SDS011;28727;50.068;14.452;2023-08-12T03:26:31;9.32;;;5.85;;
43114;SDS011;28727;50.068;14.452;2023-08-12T03:29:06;7.72;;;5.78;;
43114;SDS011;28727;50.068;14.452;2023-08-12T03:31:42;9.20;;;5.70;;
43114;SDS011;28727;50.068;14.452;2023-08-12T03:34:14;9.05;;;6.18;;
43114;SDS011;28727;50.068;14.452;2023-08-12T03:36:47;7.15;;;6.03;;
43114;SDS011;28727;50.068;14.452;2023-08-12T03:39:21;8.30;;;5.72;;
43114;SDS011;28727;50.068;14.452;2023-08-12T03:41:58;10.40;;;6.15;;
43114;SDS011;28727;50.068;14.452;2023-08-12T03:44:30;7.28;;;5.75;;
43114;SDS011;28727;50.068;14.452;2023-08-12T03:47:02;8.10;;;5.90;;
43114;SDS011;28727;50.068;14.452;2023-08-12T03:49:34;8.95;;;5.70;;
43114;SDS011;28727;50.068;14.452;2023-08-12T03:52:06;6.85;;;5.57;;
43114;SDS011;28727;50.068;14.452;2023-08-12T03:54:38;7.95;;;6.38;;
43114;SDS011;28727;50.068;14.452;2023-08-12T03:57:15;8.85;;;6.22;;
43114;SDS011;28727;50.068;14.452;2023-08-12T03:59:47;8.88;;;5.85;;
43114;SDS011;28727;50.068;14.452;2023-08-12T04:02:19;9.93;;;6.00;;
43114;SDS011;28727;50.068;14.452;2023-08-12T04:04:51;9.50;;;6.30;;
43114;SDS011;28727;50.068;14.452;2023-08-12T04:07:23;8.05;;;6.32;;
43114;SDS011;28727;50.068;14.452;2023-08-12T04:09:55;8.55;;;6.10;;
43114;SDS011;28727;50.068;14.452;2023-08-12T04:12:27;8.18;;;6.00;;
43114;SDS011;28727;50.068;14.452;2023-08-12T04:14:59;10.15;;;6.22;;
43114;SDS011;28727;50.068;14.452;2023-08-12T04:20:09;7.05;;;6.10;;
43114;SDS011;28727;50.068;14.452;2023-08-12T04:22:41;9.63;;;6.60;;
43114;SDS011;28727;50.068;14.452;2023-08-12T04:27:48;9.10;;;6.50;;
43114;SDS011;28727;50.068;14.452;2023-08-12T04:30:20;7.93;;;6.35;;
43114;SDS011;28727;50.068;14.452;2023-08-12T04:32:53;11.93;;;6.80;;
43114;SDS011;28727;50.068;14.452;2023-08-12T04:35:26;11.23;;;6.25;;
43114;SDS011;28727;50.068;14.452;2023-08-12T04:37:59;6.75;;;5.97;;
43114;SDS011;28727;50.068;14.452;2023-08-12T04:40:32;7.95;;;6.25;;
43114;SDS011;28727;50.068;14.452;2023-08-12T04:43:04;10.32;;;6.53;;
43114;SDS011;28727;50.068;14.452;2023-08-12T04:45:37;6.85;;;6.03;;
43114;SDS011;28727;50.068;14.452;2023-08-12T04:48:14;9.10;;;6.53;;
43114;SDS011;28727;50.068;14.452;2023-08-12T04:50:46;10.40;;;7.38;;
43114;SDS011;28727;50.068;14.452;2023-08-12T04:53:21;10.07;;;6.22;;
43114;SDS011;28727;50.068;14.452;2023-08-12T04:55:55;11.00;;;6.63;;
43114;SDS011;28727;50.068;14.452;2023-08-12T04:58:28;9.30;;;6.43;;
43114;SDS011;28727;50.068;14.452;2023-08-12T05:01:00;7.80;;;6.18;;
43114;SDS011;28727;50.068;14.452;2023-08-12T05:03:33;8.02;;;5.88;;
43114;SDS011;28727;50.068;14.452;2023-08-12T05:06:05;6.35;;;5.32;;
43114;SDS011;28727;50.068;14.452;2023-08-12T05:08:38;8.38;;;6.20;;
43114;SDS011;28727;50.068;14.452;2023-08-12T05:11:13;9.40;;;5.82;;
43114;SDS011;28727;50.068;14.452;2023-08-12T05:13:45;6.97;;;5.88;;
43114;SDS011;28727;50.068;14.452;2023-08-12T05:16:18;6.20;;;5.18;;
43114;SDS011;28727;50.068;14.452;2023-08-12T05:18:50;9.15;;;6.72;;
43114;SDS011;28727;50.068;14.452;2023-08-12T05:21:26;6.95;;;5.38;;
43114;SDS011;28727;50.068;14.452;2023-08-12T05:23:58;6.50;;;5.03;;
43114;SDS011;28727;50.068;14.452;2023-08-12T05:26:30;11.18;;;8.65;;
43114;SDS011;28727;50.068;14.452;2023-08-12T05:29:02;7.28;;;5.43;;
43114;SDS011;28727;50.068;14.452;2023-08-12T05:31:33;9.77;;;5.20;;
43114;SDS011;28727;50.068;14.452;2023-08-12T05:34:05;7.13;;;5.13;;
43114;SDS011;28727;50.068;14.452;2023-08-12T05:36:37;5.63;;;4.85;;
43114;SDS011;28727;50.068;14.452;2023-08-12T05:39:09;10.50;;;5.22;;
43114;SDS011;28727;50.068;14.452;2023-08-12T05:41:44;7.30;;;5.57;;
43114;SDS011;28727;50.068;14.452;2023-08-12T05:44:17;6.97;;;4.80;;
43114;SDS011;28727;50.068;14.452;2023-08-12T05:46:51;9.15;;;5.28;;
43114;SDS011;28727;50.068;14.452;2023-08-12T05:49:23;10.75;;;4.95;;
43114;SDS011;28727;50.068;14.452;2023-08-12T05:51:55;7.15;;;4.80;;
43114;SDS011;28727;50.068;14.452;2023-08-12T05:54:27;7.10;;;4.65;;
43114;SDS011;28727;50.068;14.452;2023-08-12T05:56:59;7.43;;;5.10;;
43114;SDS011;28727;50.068;14.452;2023-08-12T05:59:34;7.57;;;4.60;;
43114;SDS011;28727;50.068;14.452;2023-08-12T06:02:09;8.30;;;4.60;;
43114;SDS011;28727;50.068;14.452;2023-08-12T06:04:41;5.90;;;4.05;;
43114;SDS011;28727;50.068;14.452;2023-08-12T06:07:13;8.00;;;4.40;;
43114;SDS011;28727;50.068;14.452;2023-08-12T06:09:45;6.75;;;4.35;;
43114;SDS011;28727;50.068;14.452;2023-08-12T06:12:18;6.85;;;4.30;;
43114;SDS011;28727;50.068;14.452;2023-08-12T06:14:51;5.40;;;4.30;;
43114;SDS011;28727;50.068;14.452;2023-08-12T06:17:24;5.55;;;4.15;;
43114;SDS011;28727;50.068;14.452;2023-08-12T06:19:56;6.28;;;3.88;;
43114;SDS011;28727;50.068;14.452;2023-08-12T06:22:30;6.60;;;4.18;;
43114;SDS011;28727;50.068;14.452;2023-08-12T06:25:02;7.85;;;4.00;;
43114;SDS011;28727;50.068;14.452;2023-08-12T06:27:34;6.03;;;3.83;;
43114;SDS011;28727;50.068;14.452;2023-08-12T06:30:06;4.32;;;3.58;;
43114;SDS011;28727;50.068;14.452;2023-08-12T06:32:39;5.15;;;3.67;;
43114;SDS011;28727;50.068;14.452;2023-08-12T06:35:13;6.85;;;4.30;;
43114;SDS011;28727;50.068;14.452;2023-08-12T06:37:45;7.70;;;5.15;;
43114;SDS011;28727;50.068;14.452;2023-08-12T06:40:17;5.25;;;3.50;;
43114;SDS011;28727;50.068;14.452;2023-08-12T06:42:48;4.93;;;4.00;;
43114;SDS011;28727;50.068;14.452;2023-08-12T06:45:21;6.30;;;3.63;;
43114;SDS011;28727;50.068;14.452;2023-08-12T06:47:52;6.80;;;4.20;;
43114;SDS011;28727;50.068;14.452;2023-08-12T06:50:29;6.78;;;4.00;;
43114;SDS011;28727;50.068;14.452;2023-08-12T06:53:01;7.10;;;3.83;;
43114;SDS011;28727;50.068;14.452;2023-08-12T06:55:33;4.13;;;3.58;;
43114;SDS011;28727;50.068;14.452;2023-08-12T06:58:11;6.60;;;3.85;;
43114;SDS011;28727;50.068;14.452;2023-08-12T07:00:44;6.38;;;3.55;;
43114;SDS011;28727;50.068;14.452;2023-08-12T07:03:16;6.03;;;3.50;;
43114;SDS011;28727;50.068;14.452;2023-08-12T07:05:48;4.53;;;3.65;;
43114;SDS011;28727;50.068;14.452;2023-08-12T07:08:20;4.63;;;3.50;;
43114;SDS011;28727;50.068;14.452;2023-08-12T07:10:54;4.95;;;3.60;;
43114;SDS011;28727;50.068;14.452;2023-08-12T07:13:26;7.30;;;3.88;;
43114;SDS011;28727;50.068;14.452;2023-08-12T07:15:58;10.50;;;3.58;;
43114;SDS011;28727;50.068;14.452;2023-08-12T07:18:30;6.28;;;3.97;;
43114;SDS011;28727;50.068;14.452;2023-08-12T07:21:02;5.72;;;3.50;;
43114;SDS011;28727;50.068;14.452;2023-08-12T07:23:34;8.10;;;3.88;;
43114;SDS011;28727;50.068;14.452;2023-08-12T07:26:10;4.40;;;3.00;;
43114;SDS011;28727;50.068;14.452;2023-08-12T07:28:41;4.80;;;3.30;;
43114;SDS011;28727;50.068;14.452;2023-08-12T07:31:13;5.13;;;3.60;;
43114;SDS011;28727;50.068;14.452;2023-08-12T07:33:45;4.38;;;3.65;;
43114;SDS011;28727;50.068;14.452;2023-08-12T07:36:17;8.55;;;3.42;;
43114;SDS011;28727;50.068;14.452;2023-08-12T07:38:49;7.28;;;3.30;;
43114;SDS011;28727;50.068;14.452;2023-08-12T07:41:21;6.95;;;3.45;;
43114;SDS011;28727;50.068;14.452;2023-08-12T07:43:52;6.10;;;3.47;;
43114;SDS011;28727;50.068;14.452;2023-08-12T07:46:24;5.38;;;3.17;;
43114;SDS011;28727;50.068;14.452;2023-08-12T07:48:57;4.60;;;3.03;;
43114;SDS011;28727;50.068;14.452;2023-08-12T07:51:29;3.67;;;2.90;;
43114;SDS011;28727;50.068;14.452;2023-08-12T07:54:01;5.78;;;3.33;;
43114;SDS011;28727;50.068;14.452;2023-08-12T07:56:33;4.70;;;3.28;;
43114;SDS011;28727;50.068;14.452;2023-08-12T07:59:05;3.78;;;2.92;;
43114;SDS011;28727;50.068;14.452;2023-08-12T08:01:37;8.15;;;3.55;;
43114;SDS011;28727;50.068;14.452;2023-08-12T08:04:10;4.83;;;3.40;;
43114;SDS011;28727;50.068;14.452;2023-08-12T08:06:42;5.00;;;2.83;;
43114;SDS011;28727;50.068;14.452;2023-08-12T08:09:13;4.38;;;2.95;;
43114;SDS011;28727;50.068;14.452;2023-08-12T08:12:12;3.17;;;2.78;;
43114;SDS011;28727;50.068;14.452;2023-08-12T08:14:44;5.85;;;3.25;;
43114;SDS011;28727;50.068;14.452;2023-08-12T08:17:16;5.85;;;3.17;;
43114;SDS011;28727;50.068;14.452;2023-08-12T08:19:49;6.23;;;3.93;;
43114;SDS011;28727;50.068;14.452;2023-08-12T08:22:23;8.00;;;3.20;;
43114;SDS011;28727;50.068;14.452;2023-08-12T08:24:56;4.85;;;3.25;;
43114;SDS011;28727;50.068;14.452;2023-08-12T08:27:34;5.78;;;2.67;;
43114;SDS011;28727;50.068;14.452;2023-08-12T08:30:06;22.85;;;3.60;;
43114;SDS011;28727;50.068;14.452;2023-08-12T08:32:40;6.85;;;3.42;;
43114;SDS011;28727;50.068;14.452;2023-08-12T08:35:14;5.78;;;3.17;;
43114;SDS011;28727;50.068;14.452;2023-08-12T08:37:49;5.07;;;2.85;;
43114;SDS011;28727;50.068;14.452;2023-08-12T08:40:21;5.63;;;3.05;;
43114;SDS011;28727;50.068;14.452;2023-08-12T08:42:53;5.15;;;2.65;;
43114;SDS011;28727;50.068;14.452;2023-08-12T08:45:25;4.88;;;2.67;;
43114;SDS011;28727;50.068;14.452;2023-08-12T08:47:58;3.67;;;2.55;;
43114;SDS011;28727;50.068;14.452;2023-08-12T08:50:32;4.32;;;2.90;;
43114;SDS011;28727;50.068;14.452;2023-08-12T08:53:06;4.65;;;2.55;;
43114;SDS011;28727;50.068;14.452;2023-08-12T08:55:39;12.85;;;2.92;;
43114;SDS011;28727;50.068;14.452;2023-08-12T08:58:13;4.07;;;2.63;;
43114;SDS011;28727;50.068;14.452;2023-08-12T09:00:52;4.63;;;2.47;;
43114;SDS011;28727;50.068;14.452;2023-08-12T09:03:25;8.90;;;2.80;;
43114;SDS011;28727;50.068;14.452;2023-08-12T09:05:58;4.90;;;2.38;;
43114;SDS011;28727;50.068;14.452;2023-08-12T09:08:35;3.40;;;2.28;;
43114;SDS011;28727;50.068;14.452;2023-08-12T09:11:12;4.75;;;2.47;;
43114;SDS011;28727;50.068;14.452;2023-08-12T09:13:48;4.38;;;2.50;;
43114;SDS011;28727;50.068;14.452;2023-08-12T09:16:23;3.30;;;2.20;;
43114;SDS011;28727;50.068;14.452;2023-08-12T09:18:58;4.18;;;2.10;;
43114;SDS011;28727;50.068;14.452;2023-08-12T09:21:30;4.30;;;2.40;;
43114;SDS011;28727;50.068;14.452;2023-08-12T09:26:36;4.38;;;2.38;;
43114;SDS011;28727;50.068;14.452;2023-08-12T09:29:10;5.25;;;2.78;;
43114;SDS011;28727;50.068;14.452;2023-08-12T09:31:43;3.22;;;1.98;;
43114;SDS011;28727;50.068;14.452;2023-08-12T09:34:15;2.97;;;1.90;;
43114;SDS011;28727;50.068;14.452;2023-08-12T09:36:49;4.95;;;2.47;;
43114;SDS011;28727;50.068;14.452;2023-08-12T09:39:21;4.30;;;2.13;;
43114;SDS011;28727;50.068;14.452;2023-08-12T09:41:53;6.50;;;2.30;;
43114;SDS011;28727;50.068;14.452;2023-08-12T09:44:26;4.25;;;2.15;;
43114;SDS011;28727;50.068;14.452;2023-08-12T09:46:58;2.80;;;1.90;;
43114;SDS011;28727;50.068;14.452;2023-08-12T09:49:30;6.40;;;1.90;;
43114;SDS011;28727;50.068;14.452;2023-08-12T09:52:02;3.30;;;2.00;;
43114;SDS011;28727;50.068;14.452;2023-08-12T09:54:35;3.30;;;2.00;;
43114;SDS011;28727;50.068;14.452;2023-08-12T09:57:07;3.90;;;2.08;;
43114;SDS011;28727;50.068;14.452;2023-08-12T09:59:42;2.95;;;2.22;;
43114;SDS011;28727;50.068;14.452;2023-08-12T10:02:18;3.70;;;2.10;;
43114;SDS011;28727;50.068;14.452;2023-08-12T10:04:56;4.90;;;2.20;;
43114;SDS011;28727;50.068;14.452;2023-08-12T10:07:30;3.10;;;1.83;;
43114;SDS011;28727;50.068;14.452;2023-08-12T10:10:02;2.42;;;1.90;;
43114;SDS011;28727;50.068;14.452;2023-08-12T10:12:37;3.63;;;1.90;;
43114;SDS011;28727;50.068;14.452;2023-08-12T10:15:09;3.05;;;1.75;;
43114;SDS011;28727;50.068;14.452;2023-08-12T10:17:42;4.00;;;1.92;;
43114;SDS011;28727;50.068;14.452;2023-08-12T10:20:19;4.75;;;2.15;;
43114;SDS011;28727;50.068;14.452;2023-08-12T10:22:53;3.63;;;1.92;;
43114;SDS011;28727;50.068;14.452;2023-08-12T10:25:26;2.83;;;1.95;;
43114;SDS011;28727;50.068;14.452;2023-08-12T10:28:05;7.82;;;1.90;;
43114;SDS011;28727;50.068;14.452;2023-08-12T10:30:37;2.85;;;1.80;;
43114;SDS011;28727;50.068;14.452;2023-08-12T10:35:49;3.45;;;1.80;;
43114;SDS011;28727;50.068;14.452;2023-08-12T10:38:21;3.28;;;1.80;;
43114;SDS011;28727;50.068;14.452;2023-08-12T10:43:49;2.50;;;1.50;;
43114;SDS011;28727;50.068;14.452;2023-08-12T10:46:29;5.00;;;1.75;;
43114;SDS011;28727;50.068;14.452;2023-08-12T10:49:09;7.75;;;2.08;;
43114;SDS011;28727;50.068;14.452;2023-08-12T11:00:09;6.15;;;1.63;;
43114;SDS011;28727;50.068;14.452;2023-08-12T11:02:34;4.93;;;1.70;;
43114;SDS011;28727;50.068;14.452;2023-08-12T11:05:12;3.40;;;1.88;;
43114;SDS011;28727;50.068;14.452;2023-08-12T11:10:24;3.35;;;1.40;;
43114;SDS011;28727;50.068;14.452;2023-08-12T11:12:57;4.38;;;1.50;;
43114;SDS011;28727;50.068;14.452;2023-08-12T11:15:40;2.45;;;1.60;;
43114;SDS011;28727;50.068;14.452;2023-08-12T11:18:17;2.42;;;1.40;;
43114;SDS011;28727;50.068;14.452;2023-08-12T11:20:52;3.13;;;1.50;;
43114;SDS011;28727;50.068;14.452;2023-08-12T11:23:24;2.60;;;1.75;;
43114;SDS011;28727;50.068;14.452;2023-08-12T11:26:00;2.58;;;1.50;;
43114;SDS011;28727;50.068;14.452;2023-08-12T11:28:37;4.05;;;1.52;;
43114;SDS011;28727;50.068;14.452;2023-08-12T11:31:09;3.20;;;1.40;;
43114;SDS011;28727;50.068;14.452;2023-08-12T11:33:42;2.22;;;1.40;;
43114;SDS011;28727;50.068;14.452;2023-08-12T11:36:13;3.58;;;1.40;;
43114;SDS011;28727;50.068;14.452;2023-08-12T11:38:46;2.45;;;1.30;;
43114;SDS011;28727;50.068;14.452;2023-08-12T11:41:22;2.50;;;1.58;;
43114;SDS011;28727;50.068;14.452;2023-08-12T11:43:54;3.42;;;1.50;;
43114;SDS011;28727;50.068;14.452;2023-08-12T11:46:26;5.00;;;1.95;;
43114;SDS011;28727;50.068;14.452;2023-08-12T11:48:58;5.13;;;2.00;;
43114;SDS011;28727;50.068;14.452;2023-08-12T11:51:30;4.05;;;1.63;;
43114;SDS011;28727;50.068;14.452;2023-08-12T11:54:02;3.83;;;1.50;;
43114;SDS011;28727;50.068;14.452;2023-08-12T11:56:34;3.72;;;1.50;;
43114;SDS011;28727;50.068;14.452;2023-08-12T11:59:10;3.13;;;1.45;;
43114;SDS011;28727;50.068;14.452;2023-08-12T12:01:48;6.38;;;1.50;;
43114;SDS011;28727;50.068;14.452;2023-08-12T12:04:21;2.67;;;1.50;;
43114;SDS011;28727;50.068;14.452;2023-08-12T12:06:53;4.18;;;1.50;;
43114;SDS011;28727;50.068;14.452;2023-08-12T12:09:25;1.95;;;1.35;;
43114;SDS011;28727;50.068;14.452;2023-08-12T12:11:57;2.22;;;1.30;;
43114;SDS011;28727;50.068;14.452;2023-08-12T12:14:29;4.03;;;1.60;;
43114;SDS011;28727;50.068;14.452;2023-08-12T12:17:09;6.90;;;1.65;;
43114;SDS011;28727;50.068;14.452;2023-08-12T12:19:45;7.63;;;1.30;;
43114;SDS011;28727;50.068;14.452;2023-08-12T12:22:17;3.50;;;1.30;;
43114;SDS011;28727;50.068;14.452;2023-08-12T12:24:49;2.13;;;1.30;;
43114;SDS011;28727;50.068;14.452;2023-08-12T12:27:21;3.42;;;1.63;;
43114;SDS011;28727;50.068;14.452;2023-08-12T12:29:56;5.05;;;1.55;;
43114;SDS011;28727;50.068;14.452;2023-08-12T12:32:28;1.88;;;1.33;;
43114;SDS011;28727;50.068;14.452;2023-08-12T12:35:00;3.08;;;1.35;;
43114;SDS011;28727;50.068;14.452;2023-08-12T12:37:32;3.53;;;1.10;;
43114;SDS011;28727;50.068;14.452;2023-08-12T12:40:10;5.88;;;1.50;;
43114;SDS011;28727;50.068;14.452;2023-08-12T12:42:42;3.15;;;1.23;;
43114;SDS011;28727;50.068;14.452;2023-08-12T12:45:16;3.00;;;1.63;;
43114;SDS011;28727;50.068;14.452;2023-08-12T12:47:48;1.95;;;1.27;;
43114;SDS011;28727;50.068;14.452;2023-08-12T12:50:20;4.35;;;1.40;;
43114;SDS011;28727;50.068;14.452;2023-08-12T12:52:52;3.15;;;1.40;;
43114;SDS011;28727;50.068;14.452;2023-08-12T12:55:27;18.45;;;2.13;;
43114;SDS011;28727;50.068;14.452;2023-08-12T12:57:59;6.80;;;1.40;;
43114;SDS011;28727;50.068;14.452;2023-08-12T13:00:31;3.58;;;1.70;;
43114;SDS011;28727;50.068;14.452;2023-08-12T13:03:02;2.15;;;1.50;;
43114;SDS011;28727;50.068;14.452;2023-08-12T13:05:36;3.78;;;1.33;;
43114;SDS011;28727;50.068;14.452;2023-08-12T13:08:08;1.95;;;1.27;;
43114;SDS011;28727;50.068;14.452;2023-08-12T13:10:39;2.25;;;1.48;;
43114;SDS011;28727;50.068;14.452;2023-08-12T13:13:12;2.38;;;1.58;;
43114;SDS011;28727;50.068;14.452;2023-08-12T13:15:46;4.32;;;1.40;;
43114;SDS011;28727;50.068;14.452;2023-08-12T13:18:19;1.67;;;1.10;;
43114;SDS011;28727;50.068;14.452;2023-08-12T13:20:50;3.70;;;1.20;;
43114;SDS011;28727;50.068;14.452;2023-08-12T13:23:22;4.10;;;1.48;;
43114;SDS011;28727;50.068;14.452;2023-08-12T13:26:01;1.83;;;1.30;;
43114;SDS011;28727;50.068;14.452;2023-08-12T13:28:33;2.15;;;1.20;;
43114;SDS011;28727;50.068;14.452;2023-08-12T13:31:05;14.05;;;2.03;;
43114;SDS011;28727;50.068;14.452;2023-08-12T13:33:37;2.75;;;1.55;;
43114;SDS011;28727;50.068;14.452;2023-08-12T13:36:09;3.10;;;1.60;;
43114;SDS011;28727;50.068;14.452;2023-08-12T13:38:41;4.05;;;1.88;;
43114;SDS011;28727;50.068;14.452;2023-08-12T13:41:13;2.00;;;1.60;;
43114;SDS011;28727;50.068;14.452;2023-08-12T13:43:44;3.90;;;1.55;;
43114;SDS011;28727;50.068;14.452;2023-08-12T13:46:16;2.75;;;1.70;;
43114;SDS011;28727;50.068;14.452;2023-08-12T13:48:52;4.35;;;1.50;;
43114;SDS011;28727;50.068;14.452;2023-08-12T13:53:56;2.78;;;1.52;;
43114;SDS011;28727;50.068;14.452;2023-08-12T13:56:30;4.25;;;1.38;;
43114;SDS011;28727;50.068;14.452;2023-08-12T13:59:02;4.28;;;1.20;;
43114;SDS011;28727;50.068;14.452;2023-08-12T14:01:37;3.05;;;1.50;;
43114;SDS011;28727;50.068;14.452;2023-08-12T14:04:11;4.38;;;1.50;;
43114;SDS011;28727;50.068;14.452;2023-08-12T14:06:43;6.07;;;1.70;;
43114;SDS011;28727;50.068;14.452;2023-08-12T14:09:20;4.40;;;1.55;;
43114;SDS011;28727;50.068;14.452;2023-08-12T14:11:52;4.32;;;1.58;;
43114;SDS011;28727;50.068;14.452;2023-08-12T14:14:24;1.90;;;1.30;;
43114;SDS011;28727;50.068;14.452;2023-08-12T14:16:59;4.28;;;1.60;;
43114;SDS011;28727;50.068;14.452;2023-08-12T14:19:32;6.57;;;1.58;;
43114;SDS011;28727;50.068;14.452;2023-08-12T14:22:05;3.17;;;1.50;;
43114;SDS011;28727;50.068;14.452;2023-08-12T14:24:38;2.65;;;1.30;;
43114;SDS011;28727;50.068;14.452;2023-08-12T14:27:10;5.53;;;1.52;;
43114;SDS011;28727;50.068;14.452;2023-08-12T14:29:46;1.77;;;1.27;;
43114;SDS011;28727;50.068;14.452;2023-08-12T14:32:21;2.55;;;1.58;;
43114;SDS011;28727;50.068;14.452;2023-08-12T14:34:53;2.75;;;1.50;;
43114;SDS011;28727;50.068;14.452;2023-08-12T14:37:24;2.80;;;1.50;;
43114;SDS011;28727;50.068;14.452;2023-08-12T14:39:59;3.45;;;1.40;;
43114;SDS011;28727;50.068;14.452;2023-08-12T14:42:31;2.45;;;1.50;;
43114;SDS011;28727;50.068;14.452;2023-08-12T14:45:07;3.13;;;1.33;;
43114;SDS011;28727;50.068;14.452;2023-08-12T14:47:39;2.92;;;1.75;;
43114;SDS011;28727;50.068;14.452;2023-08-12T14:50:11;2.92;;;1.40;;
43114;SDS011;28727;50.068;14.452;2023-08-12T14:52:43;1.75;;;1.23;;
43114;SDS011;28727;50.068;14.452;2023-08-12T14:55:15;3.67;;;1.48;;
43114;SDS011;28727;50.068;14.452;2023-08-12T14:57:47;3.22;;;1.73;;
43114;SDS011;28727;50.068;14.452;2023-08-12T15:00:19;2.45;;;1.25;;
43114;SDS011;28727;50.068;14.452;2023-08-12T15:02:51;1.83;;;1.40;;
43114;SDS011;28727;50.068;14.452;2023-08-12T15:05:25;2.83;;;1.30;;
43114;SDS011;28727;50.068;14.452;2023-08-12T15:07:57;2.67;;;1.30;;
43114;SDS011;28727;50.068;14.452;2023-08-12T15:10:29;4.18;;;1.60;;
43114;SDS011;28727;50.068;14.452;2023-08-12T15:13:02;2.20;;;1.25;;
43114;SDS011;28727;50.068;14.452;2023-08-12T15:15:37;2.97;;;1.42;;
43114;SDS011;28727;50.068;14.452;2023-08-12T15:18:08;4.75;;;1.40;;
43114;SDS011;28727;50.068;14.452;2023-08-12T15:20:41;2.10;;;1.37;;
43114;SDS011;28727;50.068;14.452;2023-08-12T15:23:13;9.25;;;1.58;;
43114;SDS011;28727;50.068;14.452;2023-08-12T15:25:45;3.88;;;1.35;;
43114;SDS011;28727;50.068;14.452;2023-08-12T15:28:20;2.78;;;1.40;;
43114;SDS011;28727;50.068;14.452;2023-08-12T15:30:52;3.65;;;1.27;;
43114;SDS011;28727;50.068;14.452;2023-08-12T15:33:26;2.10;;;1.30;;
43114;SDS011;28727;50.068;14.452;2023-08-12T15:36:00;2.80;;;1.30;;